sensor_id;sensor_type;location;lat;lon;timestamp;P1;durP1;ratioP1;P2;durP2;ratioP2
9848;SDS011;4963;51.444;6.528;2023-07-29T00:01:12;3.13;;;2.22;;
9848;SDS011;4963;51.444;6.528;2023-07-29T00:03:39;2.75;;;2.08;;
9848;SDS011;4963;51.444;6.528;2023-07-29T00:06:07;2.95;;;2.30;;
9848;SDS011;4963;51.444;6.528;2023-07-29T00:08:33;3.15;;;2.30;;
9848;SDS011;4963;51.444;6.528;2023-07-29T00:11:02;3.28;;;2.55;;
9848;SDS011;4963;51.444;6.528;2023-07-29T00:13:29;3.85;;;2.50;;
9848;SDS011;4963;51.444;6.528;2023-07-29T00:15:56;2.85;;;2.35;;
9848;SDS011;4963;51.444;6.528;2023-07-29T00:18:22;2.50;;;2.30;;
9848;SDS011;4963;51.444;6.528;2023-07-29T00:20:49;4.20;;;2.58;;
9848;SDS011;4963;51.444;6.528;2023-07-29T00:23:16;10.73;;;2.50;;
9848;SDS011;4963;51.444;6.528;2023-07-29T00:25:44;3.92;;;2.40;;
9848;SDS011;4963;51.444;6.528;2023-07-29T00:28:13;2.83;;;2.22;;
9848;SDS011;4963;51.444;6.528;2023-07-29T00:30:39;2.95;;;2.65;;
9848;SDS011;4963;51.444;6.528;2023-07-29T00:33:06;3.15;;;2.25;;
9848;SDS011;4963;51.444;6.528;2023-07-29T00:35:34;3.63;;;2.92;;
9848;SDS011;4963;51.444;6.528;2023-07-29T00:38:01;3.17;;;2.47;;
9848;SDS011;4963;51.444;6.528;2023-07-29T00:40:28;3.85;;;2.40;;
9848;SDS011;4963;51.444;6.528;2023-07-29T00:42:55;4.68;;;2.80;;
9848;SDS011;4963;51.444;6.528;2023-07-29T00:45:24;3.20;;;2.45;;
9848;SDS011;4963;51.444;6.528;2023-07-29T00:47:53;4.30;;;2.20;;
9848;SDS011;4963;51.444;6.528;2023-07-29T00:50:20;3.00;;;2.30;;
9848;SDS011;4963;51.444;6.528;2023-07-29T00:52:48;3.65;;;2.38;;
9848;SDS011;4963;51.444;6.528;2023-07-29T00:55:15;2.25;;;2.05;;
9848;SDS011;4963;51.444;6.528;2023-07-29T00:57:42;2.55;;;2.17;;
9848;SDS011;4963;51.444;6.528;2023-07-29T01:00:13;3.15;;;2.85;;
9848;SDS011;4963;51.444;6.528;2023-07-29T01:02:41;2.90;;;2.22;;
9848;SDS011;4963;51.444;6.528;2023-07-29T01:05:08;3.35;;;2.33;;
9848;SDS011;4963;51.444;6.528;2023-07-29T01:07:39;5.32;;;2.63;;
9848;SDS011;4963;51.444;6.528;2023-07-29T01:10:15;3.47;;;2.58;;
9848;SDS011;4963;51.444;6.528;2023-07-29T01:12:50;5.43;;;2.50;;
9848;SDS011;4963;51.444;6.528;2023-07-29T01:15:22;4.45;;;2.80;;
9848;SDS011;4963;51.444;6.528;2023-07-29T01:17:53;5.90;;;2.80;;
9848;SDS011;4963;51.444;6.528;2023-07-29T01:20:22;5.13;;;2.20;;
9848;SDS011;4963;51.444;6.528;2023-07-29T01:22:51;3.83;;;2.53;;
9848;SDS011;4963;51.444;6.528;2023-07-29T01:25:19;3.17;;;2.58;;
9848;SDS011;4963;51.444;6.528;2023-07-29T01:27:47;2.83;;;2.60;;
9848;SDS011;4963;51.444;6.528;2023-07-29T01:30:16;3.28;;;2.55;;
9848;SDS011;4963;51.444;6.528;2023-07-29T01:32:45;2.90;;;2.63;;
9848;SDS011;4963;51.444;6.528;2023-07-29T01:35:20;3.28;;;2.53;;
9848;SDS011;4963;51.444;6.528;2023-07-29T01:37:51;4.53;;;2.58;;
9848;SDS011;4963;51.444;6.528;2023-07-29T01:40:22;3.25;;;2.70;;
9848;SDS011;4963;51.444;6.528;2023-07-29T01:42:52;3.25;;;2.70;;
9848;SDS011;4963;51.444;6.528;2023-07-29T01:45:22;2.83;;;2.40;;
9848;SDS011;4963;51.444;6.528;2023-07-29T01:47:50;2.60;;;2.40;;
9848;SDS011;4963;51.444;6.528;2023-07-29T01:50:17;2.53;;;2.33;;
9848;SDS011;4963;51.444;6.528;2023-07-29T01:52:44;3.17;;;2.80;;
9848;SDS011;4963;51.444;6.528;2023-07-29T01:55:11;3.65;;;2.50;;
9848;SDS011;4963;51.444;6.528;2023-07-29T01:57:39;2.63;;;2.42;;
9848;SDS011;4963;51.444;6.528;2023-07-29T02:00:06;3.05;;;2.75;;
9848;SDS011;4963;51.444;6.528;2023-07-29T02:02:34;2.95;;;2.65;;
9848;SDS011;4963;51.444;6.528;2023-07-29T02:05:00;3.35;;;2.28;;
9848;SDS011;4963;51.444;6.528;2023-07-29T02:07:28;3.60;;;2.60;;
9848;SDS011;4963;51.444;6.528;2023-07-29T02:09:54;4.03;;;2.90;;
9848;SDS011;4963;51.444;6.528;2023-07-29T02:12:21;3.85;;;2.60;;
9848;SDS011;4963;51.444;6.528;2023-07-29T02:14:49;3.55;;;2.80;;
9848;SDS011;4963;51.444;6.528;2023-07-29T02:17:16;2.83;;;2.38;;
9848;SDS011;4963;51.444;6.528;2023-07-29T02:19:43;3.60;;;2.63;;
9848;SDS011;4963;51.444;6.528;2023-07-29T02:22:12;3.83;;;2.63;;
9848;SDS011;4963;51.444;6.528;2023-07-29T02:24:40;4.00;;;2.58;;
9848;SDS011;4963;51.444;6.528;2023-07-29T02:27:07;3.10;;;2.72;;
9848;SDS011;4963;51.444;6.528;2023-07-29T02:29:34;3.70;;;2.78;;
9848;SDS011;4963;51.444;6.528;2023-07-29T02:32:03;3.00;;;2.70;;
9848;SDS011;4963;51.444;6.528;2023-07-29T02:34:30;3.10;;;2.80;;
9848;SDS011;4963;51.444;6.528;2023-07-29T02:36:57;5.03;;;3.30;;
9848;SDS011;4963;51.444;6.528;2023-07-29T02:39:24;5.72;;;2.70;;
9848;SDS011;4963;51.444;6.528;2023-07-29T02:41:50;3.50;;;2.50;;
9848;SDS011;4963;51.444;6.528;2023-07-29T02:44:17;2.60;;;2.40;;
9848;SDS011;4963;51.444;6.528;2023-07-29T02:46:45;4.32;;;2.92;;
9848;SDS011;4963;51.444;6.528;2023-07-29T02:49:13;3.67;;;2.92;;
9848;SDS011;4963;51.444;6.528;2023-07-29T02:51:40;2.75;;;2.55;;
9848;SDS011;4963;51.444;6.528;2023-07-29T02:54:07;3.15;;;2.50;;
9848;SDS011;4963;51.444;6.528;2023-07-29T02:56:34;5.45;;;2.83;;
9848;SDS011;4963;51.444;6.528;2023-07-29T02:59:00;3.28;;;2.63;;
9848;SDS011;4963;51.444;6.528;2023-07-29T03:01:27;4.90;;;2.75;;
9848;SDS011;4963;51.444;6.528;2023-07-29T03:03:54;3.90;;;2.67;;
9848;SDS011;4963;51.444;6.528;2023-07-29T03:06:23;4.38;;;2.60;;
9848;SDS011;4963;51.444;6.528;2023-07-29T03:08:50;2.72;;;2.53;;
9848;SDS011;4963;51.444;6.528;2023-07-29T03:11:17;3.50;;;2.65;;
9848;SDS011;4963;51.444;6.528;2023-07-29T03:13:44;5.07;;;3.28;;
9848;SDS011;4963;51.444;6.528;2023-07-29T03:16:11;6.28;;;2.70;;
9848;SDS011;4963;51.444;6.528;2023-07-29T03:18:39;2.50;;;2.30;;
9848;SDS011;4963;51.444;6.528;2023-07-29T03:21:07;5.85;;;2.58;;
9848;SDS011;4963;51.444;6.528;2023-07-29T03:23:35;2.42;;;2.10;;
9848;SDS011;4963;51.444;6.528;2023-07-29T03:26:03;2.47;;;1.95;;
9848;SDS011;4963;51.444;6.528;2023-07-29T03:28:35;2.42;;;2.22;;
9848;SDS011;4963;51.444;6.528;2023-07-29T03:31:03;3.10;;;2.10;;
9848;SDS011;4963;51.444;6.528;2023-07-29T03:33:30;2.42;;;2.00;;
9848;SDS011;4963;51.444;6.528;2023-07-29T03:35:57;4.00;;;1.92;;
9848;SDS011;4963;51.444;6.528;2023-07-29T03:38:24;2.85;;;2.08;;
9848;SDS011;4963;51.444;6.528;2023-07-29T03:40:52;2.40;;;2.20;;
9848;SDS011;4963;51.444;6.528;2023-07-29T03:43:19;2.60;;;2.30;;
9848;SDS011;4963;51.444;6.528;2023-07-29T03:45:46;2.80;;;2.10;;
9848;SDS011;4963;51.444;6.528;2023-07-29T03:48:13;2.35;;;2.10;;
9848;SDS011;4963;51.444;6.528;2023-07-29T03:50:40;3.63;;;2.42;;
9848;SDS011;4963;51.444;6.528;2023-07-29T03:53:07;4.63;;;2.67;;
9848;SDS011;4963;51.444;6.528;2023-07-29T03:55:35;4.20;;;2.78;;
9848;SDS011;4963;51.444;6.528;2023-07-29T03:58:03;4.75;;;3.08;;
9848;SDS011;4963;51.444;6.528;2023-07-29T04:00:30;4.10;;;3.00;;
9848;SDS011;4963;51.444;6.528;2023-07-29T04:02:57;4.00;;;3.20;;
9848;SDS011;4963;51.444;6.528;2023-07-29T04:05:24;6.05;;;3.33;;
9848;SDS011;4963;51.444;6.528;2023-07-29T04:07:51;3.50;;;3.20;;
9848;SDS011;4963;51.444;6.528;2023-07-29T04:10:18;4.47;;;3.78;;
9848;SDS011;4963;51.444;6.528;2023-07-29T04:12:45;4.38;;;3.55;;
9848;SDS011;4963;51.444;6.528;2023-07-29T04:15:14;4.25;;;3.85;;
9848;SDS011;4963;51.444;6.528;2023-07-29T04:17:41;4.63;;;4.22;;
9848;SDS011;4963;51.444;6.528;2023-07-29T04:20:08;6.35;;;4.20;;
9848;SDS011;4963;51.444;6.528;2023-07-29T04:22:36;4.60;;;4.10;;
9848;SDS011;4963;51.444;6.528;2023-07-29T04:25:03;5.10;;;4.60;;
9848;SDS011;4963;51.444;6.528;2023-07-29T04:27:31;6.75;;;4.97;;
9848;SDS011;4963;51.444;6.528;2023-07-29T04:29:58;5.35;;;4.57;;
9848;SDS011;4963;51.444;6.528;2023-07-29T04:32:26;6.50;;;4.88;;
9848;SDS011;4963;51.444;6.528;2023-07-29T04:34:53;6.55;;;4.82;;
9848;SDS011;4963;51.444;6.528;2023-07-29T04:37:20;6.43;;;5.43;;
9848;SDS011;4963;51.444;6.528;2023-07-29T04:39:47;5.53;;;5.03;;
9848;SDS011;4963;51.444;6.528;2023-07-29T04:42:14;5.43;;;4.57;;
9848;SDS011;4963;51.444;6.528;2023-07-29T04:44:40;5.68;;;5.03;;
9848;SDS011;4963;51.444;6.528;2023-07-29T04:47:08;4.80;;;4.40;;
9848;SDS011;4963;51.444;6.528;2023-07-29T04:49:37;7.40;;;4.78;;
9848;SDS011;4963;51.444;6.528;2023-07-29T04:52:05;5.43;;;4.55;;
9848;SDS011;4963;51.444;6.528;2023-07-29T04:54:32;5.30;;;3.78;;
9848;SDS011;4963;51.444;6.528;2023-07-29T04:56:59;4.18;;;3.70;;
9848;SDS011;4963;51.444;6.528;2023-07-29T04:59:25;4.90;;;3.88;;
9848;SDS011;4963;51.444;6.528;2023-07-29T05:01:52;4.65;;;3.33;;
9848;SDS011;4963;51.444;6.528;2023-07-29T05:04:19;4.95;;;4.18;;
9848;SDS011;4963;51.444;6.528;2023-07-29T05:06:47;5.82;;;3.75;;
9848;SDS011;4963;51.444;6.528;2023-07-29T05:09:16;4.78;;;3.83;;
9848;SDS011;4963;51.444;6.528;2023-07-29T05:11:43;5.50;;;3.53;;
9848;SDS011;4963;51.444;6.528;2023-07-29T05:14:12;3.90;;;3.00;;
9848;SDS011;4963;51.444;6.528;2023-07-29T05:16:39;3.45;;;3.15;;
9848;SDS011;4963;51.444;6.528;2023-07-29T05:19:06;4.60;;;2.97;;
9848;SDS011;4963;51.444;6.528;2023-07-29T05:21:33;4.30;;;3.05;;
9848;SDS011;4963;51.444;6.528;2023-07-29T05:24:01;6.18;;;3.28;;
9848;SDS011;4963;51.444;6.528;2023-07-29T05:26:28;5.32;;;3.20;;
9848;SDS011;4963;51.444;6.528;2023-07-29T05:28:55;5.07;;;3.03;;
9848;SDS011;4963;51.444;6.528;2023-07-29T05:31:22;5.88;;;3.38;;
9848;SDS011;4963;51.444;6.528;2023-07-29T05:33:49;3.03;;;2.60;;
9848;SDS011;4963;51.444;6.528;2023-07-29T05:36:16;3.53;;;3.08;;
9848;SDS011;4963;51.444;6.528;2023-07-29T05:38:43;3.47;;;2.65;;
9848;SDS011;4963;51.444;6.528;2023-07-29T05:41:11;4.30;;;2.85;;
9848;SDS011;4963;51.444;6.528;2023-07-29T05:43:38;3.47;;;2.70;;
9848;SDS011;4963;51.444;6.528;2023-07-29T05:46:05;5.75;;;2.97;;
9848;SDS011;4963;51.444;6.528;2023-07-29T05:48:32;3.28;;;2.97;;
9848;SDS011;4963;51.444;6.528;2023-07-29T05:50:59;3.42;;;2.80;;
9848;SDS011;4963;51.444;6.528;2023-07-29T05:53:25;7.13;;;3.00;;
9848;SDS011;4963;51.444;6.528;2023-07-29T05:55:51;3.20;;;2.80;;
9848;SDS011;4963;51.444;6.528;2023-07-29T05:58:20;4.13;;;2.72;;
9848;SDS011;4963;51.444;6.528;2023-07-29T06:00:46;4.20;;;3.13;;
9848;SDS011;4963;51.444;6.528;2023-07-29T06:03:13;6.32;;;3.13;;
9848;SDS011;4963;51.444;6.528;2023-07-29T06:05:40;3.22;;;2.90;;
9848;SDS011;4963;51.444;6.528;2023-07-29T06:08:07;3.78;;;3.25;;
9848;SDS011;4963;51.444;6.528;2023-07-29T06:10:34;2.85;;;2.55;;
9848;SDS011;4963;51.444;6.528;2023-07-29T06:13:01;4.82;;;2.75;;
9848;SDS011;4963;51.444;6.528;2023-07-29T06:15:30;4.07;;;3.08;;
9848;SDS011;4963;51.444;6.528;2023-07-29T06:17:56;4.68;;;2.95;;
9848;SDS011;4963;51.444;6.528;2023-07-29T06:20:23;4.00;;;2.60;;
9848;SDS011;4963;51.444;6.528;2023-07-29T06:22:50;2.55;;;2.35;;
9848;SDS011;4963;51.444;6.528;2023-07-29T06:25:17;3.97;;;2.58;;
9848;SDS011;4963;51.444;6.528;2023-07-29T06:27:44;2.83;;;2.50;;
9848;SDS011;4963;51.444;6.528;2023-07-29T06:30:11;4.32;;;2.95;;
9848;SDS011;4963;51.444;6.528;2023-07-29T06:32:39;4.63;;;2.70;;
9848;SDS011;4963;51.444;6.528;2023-07-29T06:35:06;2.90;;;2.50;;
9848;SDS011;4963;51.444;6.528;2023-07-29T06:37:33;2.83;;;2.30;;
9848;SDS011;4963;51.444;6.528;2023-07-29T06:40:00;3.50;;;2.55;;
9848;SDS011;4963;51.444;6.528;2023-07-29T06:42:28;2.63;;;2.40;;
9848;SDS011;4963;51.444;6.528;2023-07-29T06:44:55;2.95;;;2.50;;
9848;SDS011;4963;51.444;6.528;2023-07-29T06:47:21;4.32;;;2.58;;
9848;SDS011;4963;51.444;6.528;2023-07-29T06:49:50;3.42;;;2.38;;
9848;SDS011;4963;51.444;6.528;2023-07-29T06:52:16;4.38;;;2.38;;
9848;SDS011;4963;51.444;6.528;2023-07-29T06:54:43;3.03;;;2.05;;
9848;SDS011;4963;51.444;6.528;2023-07-29T06:57:10;3.17;;;2.30;;
9848;SDS011;4963;51.444;6.528;2023-07-29T06:59:37;4.00;;;2.10;;
9848;SDS011;4963;51.444;6.528;2023-07-29T07:02:04;5.43;;;2.25;;
9848;SDS011;4963;51.444;6.528;2023-07-29T07:04:32;4.25;;;2.08;;
9848;SDS011;4963;51.444;6.528;2023-07-29T07:07:01;2.30;;;1.95;;
9848;SDS011;4963;51.444;6.528;2023-07-29T07:09:28;2.42;;;1.80;;
9848;SDS011;4963;51.444;6.528;2023-07-29T07:11:54;2.85;;;1.90;;
9848;SDS011;4963;51.444;6.528;2023-07-29T07:14:21;2.65;;;1.85;;
9848;SDS011;4963;51.444;6.528;2023-07-29T07:16:48;2.42;;;1.80;;
9848;SDS011;4963;51.444;6.528;2023-07-29T07:19:15;2.85;;;1.75;;
9848;SDS011;4963;51.444;6.528;2023-07-29T07:21:42;4.80;;;1.85;;
9848;SDS011;4963;51.444;6.528;2023-07-29T07:24:12;2.70;;;1.90;;
9848;SDS011;4963;51.444;6.528;2023-07-29T07:26:41;2.50;;;1.80;;
9848;SDS011;4963;51.444;6.528;2023-07-29T07:29:08;3.22;;;1.80;;
9848;SDS011;4963;51.444;6.528;2023-07-29T07:31:35;3.15;;;2.10;;
9848;SDS011;4963;51.444;6.528;2023-07-29T07:34:02;2.67;;;1.80;;
9848;SDS011;4963;51.444;6.528;2023-07-29T07:36:29;2.88;;;1.90;;
9848;SDS011;4963;51.444;6.528;2023-07-29T07:38:56;2.90;;;1.58;;
9848;SDS011;4963;51.444;6.528;2023-07-29T07:41:24;2.20;;;1.60;;
9848;SDS011;4963;51.444;6.528;2023-07-29T07:43:51;4.90;;;2.00;;
9848;SDS011;4963;51.444;6.528;2023-07-29T07:46:18;1.70;;;1.50;;
9848;SDS011;4963;51.444;6.528;2023-07-29T07:48:45;2.05;;;1.60;;
9848;SDS011;4963;51.444;6.528;2023-07-29T07:51:12;3.25;;;1.88;;
9848;SDS011;4963;51.444;6.528;2023-07-29T07:53:39;3.17;;;1.60;;
9848;SDS011;4963;51.444;6.528;2023-07-29T07:56:07;2.85;;;1.70;;
9848;SDS011;4963;51.444;6.528;2023-07-29T07:58:35;3.15;;;1.98;;
9848;SDS011;4963;51.444;6.528;2023-07-29T08:01:02;3.90;;;1.70;;
9848;SDS011;4963;51.444;6.528;2023-07-29T08:03:29;2.15;;;1.60;;
9848;SDS011;4963;51.444;6.528;2023-07-29T08:05:56;2.22;;;1.55;;
9848;SDS011;4963;51.444;6.528;2023-07-29T08:08:24;2.08;;;1.48;;
9848;SDS011;4963;51.444;6.528;2023-07-29T08:10:52;2.42;;;1.70;;
9848;SDS011;4963;51.444;6.528;2023-07-29T08:13:19;3.92;;;1.55;;
9848;SDS011;4963;51.444;6.528;2023-07-29T08:15:48;1.40;;;1.30;;
9848;SDS011;4963;51.444;6.528;2023-07-29T08:18:15;1.73;;;1.33;;
9848;SDS011;4963;51.444;6.528;2023-07-29T08:20:51;1.58;;;1.30;;
9848;SDS011;4963;51.444;6.528;2023-07-29T08:23:19;2.55;;;1.40;;
9848;SDS011;4963;51.444;6.528;2023-07-29T08:25:49;1.40;;;1.23;;
9848;SDS011;4963;51.444;6.528;2023-07-29T08:28:18;1.33;;;1.23;;
9848;SDS011;4963;51.444;6.528;2023-07-29T08:30:44;1.65;;;1.30;;
9848;SDS011;4963;51.444;6.528;2023-07-29T08:33:13;1.92;;;1.42;;
9848;SDS011;4963;51.444;6.528;2023-07-29T08:35:40;1.63;;;1.30;;
9848;SDS011;4963;51.444;6.528;2023-07-29T08:38:06;1.40;;;1.30;;
9848;SDS011;4963;51.444;6.528;2023-07-29T08:40:34;1.88;;;1.50;;
9848;SDS011;4963;51.444;6.528;2023-07-29T08:43:03;1.55;;;1.20;;
9848;SDS011;4963;51.444;6.528;2023-07-29T08:45:31;1.80;;;1.50;;
9848;SDS011;4963;51.444;6.528;2023-07-29T08:48:02;2.03;;;1.40;;
9848;SDS011;4963;51.444;6.528;2023-07-29T08:50:32;3.55;;;1.50;;
9848;SDS011;4963;51.444;6.528;2023-07-29T08:52:59;1.50;;;1.40;;
9848;SDS011;4963;51.444;6.528;2023-07-29T08:55:29;2.60;;;1.70;;
9848;SDS011;4963;51.444;6.528;2023-07-29T08:57:57;1.55;;;1.35;;
9848;SDS011;4963;51.444;6.528;2023-07-29T09:00:24;4.00;;;1.52;;
9848;SDS011;4963;51.444;6.528;2023-07-29T09:02:52;3.22;;;1.40;;
9848;SDS011;4963;51.444;6.528;2023-07-29T09:05:20;2.30;;;1.55;;
9848;SDS011;4963;51.444;6.528;2023-07-29T09:07:48;2.55;;;1.45;;
9848;SDS011;4963;51.444;6.528;2023-07-29T09:10:18;2.15;;;1.63;;
9848;SDS011;4963;51.444;6.528;2023-07-29T09:12:48;3.30;;;1.55;;
9848;SDS011;4963;51.444;6.528;2023-07-29T09:15:25;1.60;;;1.50;;
9848;SDS011;4963;51.444;6.528;2023-07-29T09:17:55;1.90;;;1.60;;
9848;SDS011;4963;51.444;6.528;2023-07-29T09:20:25;2.05;;;1.60;;
9848;SDS011;4963;51.444;6.528;2023-07-29T09:22:55;2.15;;;1.50;;
9848;SDS011;4963;51.444;6.528;2023-07-29T09:25:25;3.38;;;1.67;;
9848;SDS011;4963;51.444;6.528;2023-07-29T09:27:52;2.67;;;1.35;;
9848;SDS011;4963;51.444;6.528;2023-07-29T09:30:24;2.65;;;1.60;;
9848;SDS011;4963;51.444;6.528;2023-07-29T09:32:52;1.60;;;1.50;;
9848;SDS011;4963;51.444;6.528;2023-07-29T09:35:21;2.85;;;1.80;;
9848;SDS011;4963;51.444;6.528;2023-07-29T09:37:48;1.70;;;1.60;;
9848;SDS011;4963;51.444;6.528;2023-07-29T09:40:17;3.17;;;1.67;;
9848;SDS011;4963;51.444;6.528;2023-07-29T09:42:47;1.90;;;1.60;;
9848;SDS011;4963;51.444;6.528;2023-07-29T09:45:26;2.00;;;1.70;;
9848;SDS011;4963;51.444;6.528;2023-07-29T09:47:53;2.47;;;1.80;;
9848;SDS011;4963;51.444;6.528;2023-07-29T09:50:23;1.73;;;1.60;;
9848;SDS011;4963;51.444;6.528;2023-07-29T09:52:53;1.65;;;1.55;;
9848;SDS011;4963;51.444;6.528;2023-07-29T09:55:22;1.75;;;1.50;;
9848;SDS011;4963;51.444;6.528;2023-07-29T09:57:52;2.85;;;1.58;;
9848;SDS011;4963;51.444;6.528;2023-07-29T10:00:20;4.25;;;1.90;;
9848;SDS011;4963;51.444;6.528;2023-07-29T10:02:47;2.50;;;1.60;;
9848;SDS011;4963;51.444;6.528;2023-07-29T10:05:14;4.03;;;2.00;;
9848;SDS011;4963;51.444;6.528;2023-07-29T10:07:42;1.50;;;1.40;;
9848;SDS011;4963;51.444;6.528;2023-07-29T10:10:09;1.80;;;1.63;;
9848;SDS011;4963;51.444;6.528;2023-07-29T10:12:39;2.90;;;1.70;;
9848;SDS011;4963;51.444;6.528;2023-07-29T10:15:07;1.40;;;1.30;;
9848;SDS011;4963;51.444;6.528;2023-07-29T10:17:35;1.90;;;1.60;;
9848;SDS011;4963;51.444;6.528;2023-07-29T10:20:03;1.85;;;1.55;;
9848;SDS011;4963;51.444;6.528;2023-07-29T10:22:33;2.28;;;1.60;;
9848;SDS011;4963;51.444;6.528;2023-07-29T10:25:03;3.55;;;1.40;;
9848;SDS011;4963;51.444;6.528;2023-07-29T10:27:33;1.95;;;1.73;;
9848;SDS011;4963;51.444;6.528;2023-07-29T10:30:08;2.78;;;1.60;;
9848;SDS011;4963;51.444;6.528;2023-07-29T10:32:37;1.77;;;1.50;;
9848;SDS011;4963;51.444;6.528;2023-07-29T10:35:05;1.73;;;1.45;;
9848;SDS011;4963;51.444;6.528;2023-07-29T10:37:32;2.28;;;1.30;;
9848;SDS011;4963;51.444;6.528;2023-07-29T10:39:59;3.03;;;1.50;;
9848;SDS011;4963;51.444;6.528;2023-07-29T10:42:26;2.78;;;1.60;;
9848;SDS011;4963;51.444;6.528;2023-07-29T10:44:54;2.30;;;1.63;;
9848;SDS011;4963;51.444;6.528;2023-07-29T10:47:24;2.08;;;1.35;;
9848;SDS011;4963;51.444;6.528;2023-07-29T10:49:53;1.90;;;1.35;;
9848;SDS011;4963;51.444;6.528;2023-07-29T10:52:28;2.30;;;1.30;;
9848;SDS011;4963;51.444;6.528;2023-07-29T10:54:57;2.00;;;1.80;;
9848;SDS011;4963;51.444;6.528;2023-07-29T10:57:30;3.63;;;1.58;;
9848;SDS011;4963;51.444;6.528;2023-07-29T11:00:00;2.42;;;1.63;;
9848;SDS011;4963;51.444;6.528;2023-07-29T11:02:29;1.73;;;1.52;;
9848;SDS011;4963;51.444;6.528;2023-07-29T11:04:57;2.20;;;1.60;;
9848;SDS011;4963;51.444;6.528;2023-07-29T11:07:25;3.00;;;1.80;;
9848;SDS011;4963;51.444;6.528;2023-07-29T11:09:52;2.83;;;1.70;;
9848;SDS011;4963;51.444;6.528;2023-07-29T11:12:34;1.98;;;1.58;;
9848;SDS011;4963;51.444;6.528;2023-07-29T11:15:15;2.08;;;1.80;;
9848;SDS011;4963;51.444;6.528;2023-07-29T11:17:44;2.25;;;1.52;;
9848;SDS011;4963;51.444;6.528;2023-07-29T11:20:13;1.90;;;1.50;;
9848;SDS011;4963;51.444;6.528;2023-07-29T11:22:40;3.33;;;1.85;;
9848;SDS011;4963;51.444;6.528;2023-07-29T11:25:09;2.20;;;1.70;;
9848;SDS011;4963;51.444;6.528;2023-07-29T11:27:37;2.05;;;1.73;;
9848;SDS011;4963;51.444;6.528;2023-07-29T11:30:07;3.35;;;1.60;;
9848;SDS011;4963;51.444;6.528;2023-07-29T11:32:38;3.67;;;1.65;;
9848;SDS011;4963;51.444;6.528;2023-07-29T11:35:07;4.43;;;1.70;;
9848;SDS011;4963;51.444;6.528;2023-07-29T11:37:36;2.80;;;1.60;;
9848;SDS011;4963;51.444;6.528;2023-07-29T11:40:04;2.60;;;1.70;;
9848;SDS011;4963;51.444;6.528;2023-07-29T11:42:32;2.40;;;1.83;;
9848;SDS011;4963;51.444;6.528;2023-07-29T11:45:00;2.53;;;1.60;;
9848;SDS011;4963;51.444;6.528;2023-07-29T11:47:28;3.70;;;1.55;;
9848;SDS011;4963;51.444;6.528;2023-07-29T11:49:59;2.00;;;1.50;;
9848;SDS011;4963;51.444;6.528;2023-07-29T11:52:26;2.25;;;1.88;;
9848;SDS011;4963;51.444;6.528;2023-07-29T11:54:54;1.95;;;1.55;;
9848;SDS011;4963;51.444;6.528;2023-07-29T11:57:21;1.85;;;1.67;;
9848;SDS011;4963;51.444;6.528;2023-07-29T11:59:48;5.88;;;1.50;;
9848;SDS011;4963;51.444;6.528;2023-07-29T12:02:16;2.95;;;2.03;;
9848;SDS011;4963;51.444;6.528;2023-07-29T12:04:44;3.90;;;1.80;;
9848;SDS011;4963;51.444;6.528;2023-07-29T12:07:14;2.08;;;1.88;;
9848;SDS011;4963;51.444;6.528;2023-07-29T12:09:42;2.33;;;2.13;;
9848;SDS011;4963;51.444;6.528;2023-07-29T12:12:10;2.35;;;1.73;;
9848;SDS011;4963;51.444;6.528;2023-07-29T12:14:37;4.72;;;1.80;;
9848;SDS011;4963;51.444;6.528;2023-07-29T12:17:05;3.15;;;1.85;;
9848;SDS011;4963;51.444;6.528;2023-07-29T12:19:32;2.00;;;1.70;;
9848;SDS011;4963;51.444;6.528;2023-07-29T12:22:00;6.45;;;1.50;;
9848;SDS011;4963;51.444;6.528;2023-07-29T12:24:28;3.72;;;1.88;;
9848;SDS011;4963;51.444;6.528;2023-07-29T12:26:56;1.90;;;1.70;;
9848;SDS011;4963;51.444;6.528;2023-07-29T12:29:23;2.22;;;1.98;;
9848;SDS011;4963;51.444;6.528;2023-07-29T12:31:56;2.50;;;1.80;;
9848;SDS011;4963;51.444;6.528;2023-07-29T12:34:25;2.00;;;1.75;;
9848;SDS011;4963;51.444;6.528;2023-07-29T12:36:52;2.15;;;1.75;;
9848;SDS011;4963;51.444;6.528;2023-07-29T12:39:20;2.38;;;1.65;;
9848;SDS011;4963;51.444;6.528;2023-07-29T12:41:50;2.92;;;1.67;;
9848;SDS011;4963;51.444;6.528;2023-07-29T12:44:18;3.75;;;2.10;;
9848;SDS011;4963;51.444;6.528;2023-07-29T12:46:45;2.80;;;1.92;;
9848;SDS011;4963;51.444;6.528;2023-07-29T12:49:12;2.08;;;1.75;;
9848;SDS011;4963;51.444;6.528;2023-07-29T12:51:40;1.90;;;1.70;;
9848;SDS011;4963;51.444;6.528;2023-07-29T12:54:07;2.45;;;1.80;;
9848;SDS011;4963;51.444;6.528;2023-07-29T12:56:34;2.00;;;1.70;;
9848;SDS011;4963;51.444;6.528;2023-07-29T12:59:02;2.30;;;1.80;;
9848;SDS011;4963;51.444;6.528;2023-07-29T13:01:31;5.40;;;1.90;;
9848;SDS011;4963;51.444;6.528;2023-07-29T13:03:58;2.38;;;1.95;;
9848;SDS011;4963;51.444;6.528;2023-07-29T13:06:25;2.63;;;1.85;;
9848;SDS011;4963;51.444;6.528;2023-07-29T13:08:51;2.80;;;1.70;;
9848;SDS011;4963;51.444;6.528;2023-07-29T13:11:18;2.25;;;1.75;;
9848;SDS011;4963;51.444;6.528;2023-07-29T13:13:45;1.88;;;1.58;;
9848;SDS011;4963;51.444;6.528;2023-07-29T13:16:13;3.03;;;2.20;;
9848;SDS011;4963;51.444;6.528;2023-07-29T13:18:40;2.35;;;2.15;;
9848;SDS011;4963;51.444;6.528;2023-07-29T13:21:09;3.50;;;2.10;;
9848;SDS011;4963;51.444;6.528;2023-07-29T13:23:36;2.80;;;2.20;;
9848;SDS011;4963;51.444;6.528;2023-07-29T13:26:02;4.93;;;2.20;;
9848;SDS011;4963;51.444;6.528;2023-07-29T13:28:29;4.15;;;1.85;;
9848;SDS011;4963;51.444;6.528;2023-07-29T13:30:56;4.80;;;1.75;;
9848;SDS011;4963;51.444;6.528;2023-07-29T13:33:24;2.42;;;2.10;;
9848;SDS011;4963;51.444;6.528;2023-07-29T13:35:51;4.65;;;2.35;;
9848;SDS011;4963;51.444;6.528;2023-07-29T13:38:18;3.33;;;2.45;;
9848;SDS011;4963;51.444;6.528;2023-07-29T13:40:46;5.50;;;2.63;;
9848;SDS011;4963;51.444;6.528;2023-07-29T13:43:15;9.13;;;3.80;;
9848;SDS011;4963;51.444;6.528;2023-07-29T13:45:42;13.80;;;4.10;;
9848;SDS011;4963;51.444;6.528;2023-07-29T13:48:09;6.55;;;3.60;;
9848;SDS011;4963;51.444;6.528;2023-07-29T13:50:37;3.22;;;2.75;;
9848;SDS011;4963;51.444;6.528;2023-07-29T13:53:04;3.85;;;2.58;;
9848;SDS011;4963;51.444;6.528;2023-07-29T13:55:31;4.72;;;2.90;;
9848;SDS011;4963;51.444;6.528;2023-07-29T13:57:58;6.43;;;2.97;;
9848;SDS011;4963;51.444;6.528;2023-07-29T14:00:25;3.85;;;2.58;;
9848;SDS011;4963;51.444;6.528;2023-07-29T14:02:52;5.18;;;3.05;;
9848;SDS011;4963;51.444;6.528;2023-07-29T14:05:19;5.32;;;2.97;;
9848;SDS011;4963;51.444;6.528;2023-07-29T14:07:47;4.88;;;2.58;;
9848;SDS011;4963;51.444;6.528;2023-07-29T14:10:14;3.00;;;2.70;;
9848;SDS011;4963;51.444;6.528;2023-07-29T14:12:41;3.88;;;3.00;;
9848;SDS011;4963;51.444;6.528;2023-07-29T14:15:08;4.93;;;2.75;;
9848;SDS011;4963;51.444;6.528;2023-07-29T14:17:35;3.80;;;2.97;;
9848;SDS011;4963;51.444;6.528;2023-07-29T14:20:02;4.07;;;2.92;;
9848;SDS011;4963;51.444;6.528;2023-07-29T14:22:30;4.45;;;2.83;;
9848;SDS011;4963;51.444;6.528;2023-07-29T14:24:58;5.75;;;2.72;;
9848;SDS011;4963;51.444;6.528;2023-07-29T14:27:25;4.30;;;2.85;;
9848;SDS011;4963;51.444;6.528;2023-07-29T14:29:51;4.88;;;2.65;;
9848;SDS011;4963;51.444;6.528;2023-07-29T14:32:18;4.70;;;2.72;;
9848;SDS011;4963;51.444;6.528;2023-07-29T14:34:45;3.92;;;2.67;;
9848;SDS011;4963;51.444;6.528;2023-07-29T14:37:12;5.38;;;2.90;;
9848;SDS011;4963;51.444;6.528;2023-07-29T14:39:39;3.83;;;2.90;;
9848;SDS011;4963;51.444;6.528;2023-07-29T14:42:07;3.60;;;2.97;;
9848;SDS011;4963;51.444;6.528;2023-07-29T14:44:34;4.90;;;3.00;;
9848;SDS011;4963;51.444;6.528;2023-07-29T14:47:00;3.80;;;3.10;;
9848;SDS011;4963;51.444;6.528;2023-07-29T14:49:27;3.15;;;2.85;;
9848;SDS011;4963;51.444;6.528;2023-07-29T14:51:54;3.90;;;2.88;;
9848;SDS011;4963;51.444;6.528;2023-07-29T14:54:21;5.57;;;2.70;;
9848;SDS011;4963;51.444;6.528;2023-07-29T14:56:48;3.50;;;2.88;;
9848;SDS011;4963;51.444;6.528;2023-07-29T14:59:16;5.38;;;3.17;;
9848;SDS011;4963;51.444;6.528;2023-07-29T15:01:43;4.70;;;3.20;;
9848;SDS011;4963;51.444;6.528;2023-07-29T15:04:10;5.05;;;2.97;;
9848;SDS011;4963;51.444;6.528;2023-07-29T15:06:37;3.92;;;3.10;;
9848;SDS011;4963;51.444;6.528;2023-07-29T15:09:04;7.55;;;3.63;;
9848;SDS011;4963;51.444;6.528;2023-07-29T15:11:31;4.65;;;2.80;;
9848;SDS011;4963;51.444;6.528;2023-07-29T15:13:59;2.80;;;2.45;;
9848;SDS011;4963;51.444;6.528;2023-07-29T15:16:27;3.63;;;2.30;;
9848;SDS011;4963;51.444;6.528;2023-07-29T15:18:54;2.55;;;1.95;;